createdAt,value
2019-03-10T00:03:26.758Z,98580.35
2019-03-10T00:05:37.577Z,98568.13
2019-03-10T00:07:48.429Z,98577.31
2019-03-10T00:09:59.333Z,98568.95
2019-03-10T00:12:10.156Z,98559.02
2019-03-10T00:14:20.976Z,98563.09
2019-03-10T00:16:31.805Z,98557.98
2019-03-10T00:18:42.627Z,98551.95
2019-03-10T00:20:53.424Z,98547.30
2019-03-10T00:25:56.458Z,98536.50
2019-03-10T00:28:07.263Z,98532.44
2019-03-10T00:30:18.198Z,98528.27
2019-03-10T00:32:28.987Z,98526.20
2019-03-10T00:34:39.818Z,98524.84
2019-03-10T00:36:50.733Z,98518.14
2019-03-10T00:39:43.233Z,98518.04
2019-03-10T00:42:33.855Z,98515.14
2019-03-10T00:45:24.426Z,98503.38
2019-03-10T00:48:16.858Z,98497.72
2019-03-10T00:51:07.418Z,98497.72
2019-03-10T00:53:18.321Z,98492.16
2019-03-10T00:55:29.375Z,98488.59
2019-03-10T00:57:40.201Z,98481.09
2019-03-10T00:59:50.996Z,98485.89
2019-03-10T01:02:01.814Z,98479.33
2019-03-10T01:04:12.697Z,98478.56
2019-03-10T01:06:23.459Z,98479.14
2019-03-10T01:08:34.256Z,98471.05
2019-03-10T01:10:45.167Z,98469.57
2019-03-10T01:12:56.081Z,98455.18
2019-03-10T01:15:48.547Z,98451.75
2019-03-10T01:18:41.012Z,98446.55
2019-03-10T01:21:33.502Z,98434.95
2019-03-10T01:23:44.309Z,98423.14
2019-03-10T01:25:55.123Z,98414.70
2019-03-10T01:28:05.955Z,98405.42
2019-03-10T01:30:58.397Z,98416.94
2019-03-10T01:33:48.968Z,98413.95
2019-03-10T01:35:59.759Z,98408.38
2019-03-10T01:38:10.568Z,98420.38
2019-03-10T01:40:21.370Z,98420.91
2019-03-10T01:42:32.183Z,98419.44
2019-03-10T01:44:43.029Z,98413.59
2019-03-10T01:46:53.940Z,98398.38
2019-03-10T01:49:04.773Z,98387.98
2019-03-10T01:51:15.575Z,98383.83
2019-03-10T01:53:26.384Z,98372.97
2019-03-10T01:55:37.188Z,98375.09
2019-03-10T01:57:48.094Z,98369.43
2019-03-10T01:59:58.910Z,98359.79
2019-03-10T02:02:09.691Z,98354.77
2019-03-10T02:04:20.533Z,98347.70
2019-03-10T02:06:31.331Z,98349.28
2019-03-10T02:08:42.144Z,98349.75
2019-03-10T02:10:52.968Z,98329.44
2019-03-10T02:13:03.756Z,98323.13
2019-03-10T02:15:14.590Z,98329.33
2019-03-10T02:17:25.387Z,98307.81
2019-03-10T02:19:36.207Z,98297.23
2019-03-10T02:21:47.007Z,98300.20
2019-03-10T02:23:57.810Z,98290.45
2019-03-10T02:26:08.603Z,98281.72
2019-03-10T02:28:19.398Z,98280.89
2019-03-10T02:30:30.223Z,98274.68
2019-03-10T02:32:41.117Z,98266.48
2019-03-10T02:34:51.928Z,98260.64
2019-03-10T02:37:02.826Z,98252.67
2019-03-10T02:39:13.622Z,98246.09
2019-03-10T02:41:24.446Z,98247.76
2019-03-10T02:43:35.263Z,98242.27
2019-03-10T02:45:46.085Z,98242.27
2019-03-10T02:47:56.884Z,98237.47
2019-03-10T02:50:49.352Z,98234.12
2019-03-10T02:53:00.159Z,98232.28
2019-03-10T02:55:11.066Z,98221.59
2019-03-10T02:57:21.883Z,98220.59
2019-03-10T02:59:32.687Z,98208.69
2019-03-10T03:01:43.509Z,98204.14
2019-03-10T03:03:54.350Z,98199.23
2019-03-10T03:06:05.232Z,98192.92
2019-03-10T03:08:17.058Z,98191.73
2019-03-10T03:10:28.832Z,98178.27
2019-03-10T03:12:39.747Z,98166.77
2019-03-10T03:14:50.559Z,98157.86
2019-03-10T03:17:01.355Z,98154.53
2019-03-10T03:19:12.167Z,98144.33
2019-03-10T03:21:23.018Z,98140.98
2019-03-10T03:23:33.801Z,98135.13
2019-03-10T03:25:44.618Z,98129.57
2019-03-10T03:27:55.436Z,98126.87
2019-03-10T03:30:47.876Z,98136.34
2019-03-10T03:32:58.821Z,98127.98
2019-03-10T03:35:49.366Z,98118.64
2019-03-10T03:38:00.178Z,98128.64
2019-03-10T03:40:10.976Z,98122.06
2019-03-10T03:42:21.814Z,98121.78
2019-03-10T03:44:32.612Z,98119.18
2019-03-10T03:46:43.539Z,98117.52
2019-03-10T03:48:54.322Z,98110.21
2019-03-10T03:51:05.121Z,98110.00
2019-03-10T03:53:15.934Z,98111.13
2019-03-10T03:55:26.737Z,98106.58
2019-03-10T03:57:37.561Z,98105.39
2019-03-10T03:59:48.343Z,98102.98
2019-03-10T04:04:21.441Z,98090.17
2019-03-10T04:06:32.226Z,98088.41
2019-03-10T04:08:43.157Z,98080.08
2019-03-10T04:10:53.952Z,98068.27
2019-03-10T04:13:04.744Z,98066.60
2019-03-10T04:15:15.562Z,98064.66
2019-03-10T04:17:26.405Z,98062.34
2019-03-10T04:19:37.197Z,98061.47
2019-03-10T04:21:48.009Z,98063.62
2019-03-10T04:23:58.891Z,98068.98
2019-03-10T04:26:09.678Z,98061.56
2019-03-10T04:28:20.467Z,98052.30
2019-03-10T04:30:31.293Z,98046.28
2019-03-10T04:32:42.133Z,98042.86
2019-03-10T04:34:52.927Z,98041.27
2019-03-10T04:37:03.718Z,98032.85
2019-03-10T04:39:14.540Z,98024.12
2019-03-10T04:41:25.337Z,98015.13
2019-03-10T04:43:36.168Z,97998.52
2019-03-10T04:45:46.958Z,98001.39
2019-03-10T04:47:57.755Z,98000.09
2019-03-10T04:50:08.574Z,98001.68
2019-03-10T04:52:19.446Z,97991.95
2019-03-10T04:54:50.135Z,97984.52
2019-03-10T04:59:33.309Z,97958.41
2019-03-10T05:01:44.095Z,97958.03
2019-03-10T05:03:54.946Z,97946.91
2019-03-10T05:06:05.738Z,97944.68
2019-03-10T05:08:16.542Z,97942.53
2019-03-10T05:10:27.373Z,97939.41
2019-03-10T05:12:38.155Z,97928.00
2019-03-10T05:14:48.954Z,97914.67
2019-03-10T05:16:59.749Z,97915.60
2019-03-10T05:19:10.554Z,97905.31
2019-03-10T05:21:21.379Z,97906.81
2019-03-10T05:24:13.825Z,97898.11
2019-03-10T05:26:24.632Z,97884.88
2019-03-10T05:28:55.287Z,97875.16
2019-03-10T05:31:06.123Z,97874.97
2019-03-10T05:33:16.927Z,97856.95
2019-03-10T05:35:27.733Z,97860.53
2019-03-10T05:37:38.530Z,97857.31
2019-03-10T05:39:49.314Z,97840.66
2019-03-10T05:42:00.155Z,97835.66
2019-03-10T05:44:10.936Z,97842.40
2019-03-10T05:46:21.756Z,97832.05
2019-03-10T05:48:32.530Z,97828.36
2019-03-10T05:50:43.322Z,97813.00
2019-03-10T05:52:54.135Z,97826.05
2019-03-10T05:55:05.030Z,97816.41
2019-03-10T05:57:15.834Z,97815.03
2019-03-10T05:59:26.632Z,97808.83
2019-03-10T06:01:37.455Z,97799.23
2019-03-10T06:03:48.260Z,97790.93
2019-03-10T06:05:59.065Z,97782.77
2019-03-10T06:08:09.887Z,97769.00
2019-03-10T06:10:20.712Z,97770.86
2019-03-10T06:12:31.522Z,97765.94
2019-03-10T06:14:42.316Z,97766.77
2019-03-10T06:16:53.232Z,97765.40
2019-03-10T06:19:04.023Z,97759.22
2019-03-10T06:21:14.840Z,97768.71
2019-03-10T06:23:25.653Z,97769.17
2019-03-10T06:25:36.445Z,97765.69
2019-03-10T06:27:47.276Z,97764.39
2019-03-10T06:29:58.059Z,97762.53
2019-03-10T06:32:08.853Z,97758.84
2019-03-10T06:34:19.689Z,97763.48
2019-03-10T06:36:30.499Z,97753.48
2019-03-10T06:38:41.316Z,97745.44
2019-03-10T06:40:52.114Z,97737.95
2019-03-10T06:43:02.935Z,97721.88
2019-03-10T06:45:13.728Z,97721.31
2019-03-10T06:47:24.554Z,97712.25
2019-03-10T06:49:35.359Z,97702.06
2019-03-10T06:51:46.153Z,97695.81
2019-03-10T06:53:56.982Z,97689.88
2019-03-10T06:56:07.773Z,97674.70
2019-03-10T06:58:18.597Z,97670.28
2019-03-10T07:00:29.404Z,97668.80
2019-03-10T07:02:40.213Z,97668.51
2019-03-10T07:04:51.049Z,97674.50
2019-03-10T07:07:01.873Z,97674.42
2019-03-10T07:09:12.694Z,97672.27
2019-03-10T07:11:23.490Z,97668.03
2019-03-10T07:13:34.302Z,97663.02
2019-03-10T07:15:45.132Z,97664.23
2019-03-10T07:17:55.929Z,97664.77
2019-03-10T07:20:48.399Z,97667.09
2019-03-10T07:22:59.218Z,97657.26
2019-03-10T07:25:10.125Z,97668.15
2019-03-10T07:34:54.465Z,97671.35
2019-03-10T07:37:25.127Z,97663.31
2019-03-10T07:39:55.851Z,97661.82
2019-03-10T07:42:26.535Z,97661.59
2019-03-10T07:47:19.504Z,97673.12
2019-03-10T07:52:19.789Z,97672.73
2019-03-10T07:54:45.103Z,97673.61
2019-03-10T07:57:15.816Z,97679.62
2019-03-10T07:59:46.479Z,97676.75
2019-03-10T08:02:17.284Z,97669.02
2019-03-10T08:04:47.979Z,97662.70
2019-03-10T08:09:37.713Z,97660.05
2019-03-10T08:14:30.562Z,97669.20
2019-03-10T08:17:01.239Z,97674.67
2019-03-10T08:24:22.861Z,97678.55
2019-03-10T08:26:53.535Z,97675.55
2019-03-10T08:29:24.237Z,97691.20
2019-03-10T08:31:54.922Z,97679.20
2019-03-10T08:34:25.633Z,97683.86
2019-03-10T08:36:56.303Z,97678.06
2019-03-10T08:39:27.020Z,97684.84
2019-03-10T08:41:57.695Z,97685.73
2019-03-10T08:44:28.373Z,97673.72
2019-03-10T08:46:59.049Z,97667.30
2019-03-10T08:49:29.728Z,97656.49
2019-03-10T08:52:00.432Z,97658.90
2019-03-10T08:54:31.126Z,97660.72
2019-03-10T08:57:01.839Z,97658.88
2019-03-10T08:59:32.557Z,97648.88
2019-03-10T09:02:03.220Z,97656.24
2019-03-10T09:04:33.922Z,97653.78
2019-03-10T09:07:04.624Z,97647.06
2019-03-10T09:09:35.322Z,97649.67
2019-03-10T09:12:06.040Z,97655.13
2019-03-10T09:16:55.498Z,97651.23
2019-03-10T09:19:26.203Z,97649.59
2019-03-10T09:24:29.254Z,97645.89
2019-03-10T09:26:59.929Z,97650.62
2019-03-10T09:29:30.672Z,97639.39
2019-03-10T09:32:01.441Z,97638.70
2019-03-10T09:34:32.157Z,97642.77
2019-03-10T09:37:02.859Z,97628.58
2019-03-10T09:42:05.913Z,97629.31
2019-03-10T09:44:36.590Z,97622.00
2019-03-10T09:47:07.303Z,97616.67
2019-03-10T09:52:10.370Z,97619.88
2019-03-10T09:54:41.067Z,97616.81
2019-03-10T09:59:30.370Z,97605.58
2019-03-10T10:04:23.342Z,97605.83
2019-03-10T10:06:54.120Z,97612.58
2019-03-10T10:09:46.570Z,97617.66
2019-03-10T10:12:17.264Z,97613.75
2019-03-10T10:14:48.816Z,97611.97
2019-03-10T10:17:19.751Z,97609.64
2019-03-10T10:19:50.442Z,97604.55
2019-03-10T10:22:21.137Z,97604.66
2019-03-10T10:24:51.811Z,97605.16
2019-03-10T10:27:22.518Z,97601.13
2019-03-10T10:29:53.310Z,97593.78
2019-03-10T10:32:24.028Z,97605.95
2019-03-10T10:34:54.702Z,97592.12
2019-03-10T10:37:25.420Z,97593.30
2019-03-10T10:42:28.470Z,97598.60
2019-03-10T10:44:59.177Z,97585.57
2019-03-10T10:47:38.596Z,97576.89
2019-03-10T10:50:09.401Z,97574.15
2019-03-10T10:52:40.215Z,97562.52
2019-03-10T10:55:10.898Z,97565.12
2019-03-10T11:02:19.365Z,97571.73
2019-03-10T11:04:50.102Z,97565.11
2019-03-10T11:09:53.245Z,97580.38
2019-03-10T11:12:24.023Z,97572.31
2019-03-10T11:14:54.741Z,97576.56
2019-03-10T11:17:25.435Z,97572.41
2019-03-10T11:19:56.125Z,97568.09
2019-03-10T11:22:26.806Z,97559.48
2019-03-10T11:24:57.504Z,97560.48
2019-03-10T11:27:28.191Z,97544.83
2019-03-10T11:34:43.351Z,97548.36
2019-03-10T11:37:14.056Z,97535.98
2019-03-10T11:39:44.851Z,97540.95
2019-03-10T11:42:15.516Z,97531.06
2019-03-10T11:47:24.826Z,97515.25
2019-03-10T11:52:14.279Z,97515.17
2019-03-10T11:54:44.991Z,97487.94
2019-03-10T11:57:15.812Z,97473.43
2019-03-10T12:02:16.147Z,97474.40
2019-03-10T12:04:41.424Z,97492.06
2019-03-10T12:07:12.147Z,97492.70
2019-03-10T12:09:22.958Z,97484.77
2019-03-10T12:11:33.803Z,97502.95
2019-03-10T12:13:44.607Z,97477.14
2019-03-10T12:15:55.542Z,97486.80
2019-03-10T12:18:06.423Z,97466.55
2019-03-10T12:20:17.293Z,97473.20
2019-03-10T12:22:28.134Z,97477.62
2019-03-10T12:24:39.144Z,97477.61
2019-03-10T12:26:49.975Z,97463.32
2019-03-10T12:29:00.790Z,97467.24
2019-03-10T12:31:11.642Z,97461.86
2019-03-10T12:33:22.451Z,97474.66
2019-03-10T12:35:34.632Z,97461.92
2019-03-10T12:37:46.034Z,97466.20
2019-03-10T12:39:56.852Z,97448.05
2019-03-10T12:42:07.735Z,97434.33
2019-03-10T12:44:18.545Z,97439.61
2019-03-10T12:46:29.478Z,97447.03
2019-03-10T12:48:40.321Z,97433.98
2019-03-10T12:50:51.148Z,97446.80
2019-03-10T12:53:01.986Z,97448.52
2019-03-10T12:55:12.904Z,97468.56
2019-03-10T12:57:23.731Z,97447.31
2019-03-10T12:59:34.591Z,97460.77
2019-03-10T13:01:45.550Z,97453.88
2019-03-10T13:03:59.159Z,97468.16
2019-03-10T13:06:09.330Z,97470.41
2019-03-10T13:08:20.295Z,97455.23
2019-03-10T13:10:31.092Z,97461.78
2019-03-10T13:12:42.037Z,97460.73
2019-03-10T13:14:59.300Z,97475.18
2019-03-10T13:17:05.574Z,97483.41
2019-03-10T13:19:16.481Z,97478.83
2019-03-10T13:21:27.290Z,97505.23
2019-03-10T13:23:38.284Z,97512.52
2019-03-10T13:25:49.089Z,97522.77
2019-03-10T13:27:59.937Z,97540.10
2019-03-10T13:30:30.605Z,97504.30
2019-03-10T13:32:44.081Z,97528.27
2019-03-10T13:34:54.128Z,97521.70
2019-03-10T13:37:04.951Z,97536.27
2019-03-10T13:39:15.788Z,97517.84
2019-03-10T13:41:26.618Z,97547.20
2019-03-10T13:43:37.479Z,97527.45
2019-03-10T13:45:48.325Z,97521.61
2019-03-10T13:47:59.122Z,97527.75
2019-03-10T13:50:29.842Z,97533.20
2019-03-10T13:52:40.721Z,97557.73
2019-03-10T13:54:51.541Z,97536.77
2019-03-10T13:57:02.373Z,97539.16
2019-03-10T13:59:13.201Z,97547.66
2019-03-10T14:01:24.023Z,97539.44
2019-03-10T14:03:34.875Z,97534.57
2019-03-10T14:05:45.828Z,97545.53
2019-03-10T14:07:56.647Z,97557.22
2019-03-10T14:10:27.345Z,97566.80
2019-03-10T14:12:38.266Z,97578.58
2019-03-10T14:17:11.635Z,97578.45
2019-03-10T14:19:22.436Z,97584.45
2019-03-10T14:21:33.508Z,97555.11
2019-03-10T14:23:44.334Z,97577.28
2019-03-10T14:25:55.277Z,97580.90
2019-03-10T14:28:06.076Z,97590.44
2019-03-10T14:30:58.611Z,97578.55
2019-03-10T14:33:09.533Z,97582.12
2019-03-10T14:35:20.405Z,97588.16
2019-03-10T14:37:31.207Z,97600.84
2019-03-10T14:39:42.033Z,97610.56
2019-03-10T14:41:52.866Z,97593.22
2019-03-10T14:44:03.789Z,97628.33
2019-03-10T14:46:14.636Z,97632.95
2019-03-10T14:48:25.427Z,97619.85
2019-03-10T14:50:36.364Z,97619.23
2019-03-10T14:52:47.197Z,97629.33
2019-03-10T14:54:58.064Z,97641.55
2019-03-10T14:57:08.896Z,97654.09
2019-03-10T14:59:19.804Z,97645.42
2019-03-10T15:01:30.717Z,97649.19
2019-03-10T15:03:41.648Z,97646.83
2019-03-10T15:05:52.486Z,97664.23
2019-03-10T15:08:03.414Z,97654.55
2019-03-10T15:10:55.853Z,97659.20
2019-03-10T15:13:06.691Z,97666.56
2019-03-10T15:15:59.164Z,97667.10
2019-03-10T15:18:10.095Z,97676.25
2019-03-10T15:20:21.726Z,97685.81
2019-03-10T15:22:33.783Z,97693.66
2019-03-10T15:24:44.622Z,97689.66
2019-03-10T15:26:55.407Z,97698.91
2019-03-10T15:29:06.233Z,97665.59
2019-03-10T15:31:17.055Z,97705.75
2019-03-10T15:33:27.887Z,97713.92
2019-03-10T15:35:38.694Z,97717.51
2019-03-10T15:37:49.509Z,97713.98
2019-03-10T15:40:00.387Z,97713.86
2019-03-10T15:42:11.254Z,97727.08
2019-03-10T15:44:22.120Z,97724.25
2019-03-10T15:46:32.897Z,97740.16
2019-03-10T15:48:43.706Z,97745.67
2019-03-10T15:50:54.629Z,97737.85
2019-03-10T15:53:05.528Z,97763.27
2019-03-10T15:55:36.353Z,97773.58
2019-03-10T15:58:28.820Z,97778.45
2019-03-10T16:01:21.288Z,97779.66
2019-03-10T16:03:32.120Z,97792.13
2019-03-10T16:05:43.140Z,97799.86
2019-03-10T16:07:53.961Z,97803.19
2019-03-10T16:10:46.451Z,97778.53
2019-03-10T16:12:57.259Z,97817.22
2019-03-10T16:15:49.748Z,97814.60
2019-03-10T16:18:00.551Z,97829.92
2019-03-10T16:20:53.055Z,97837.27
2019-03-10T16:23:03.903Z,97848.39
2019-03-10T16:25:56.397Z,97855.62
2019-03-10T16:28:07.195Z,97860.70
2019-03-10T16:30:37.901Z,97855.46
2019-03-10T16:32:48.733Z,97886.74
2019-03-10T16:34:59.545Z,97882.83
2019-03-10T16:37:10.394Z,97879.24
2019-03-10T16:39:21.285Z,97884.78
2019-03-10T16:41:32.144Z,97897.33
2019-03-10T16:43:42.951Z,97899.46
2019-03-10T16:45:53.766Z,97900.16
2019-03-10T16:48:04.685Z,97918.45
2019-03-10T16:53:01.201Z,97922.22
2019-03-10T16:55:12.017Z,97936.86
2019-03-10T16:57:24.898Z,97909.38
2019-03-10T16:59:35.568Z,97943.09
2019-03-10T17:01:46.384Z,97934.80
2019-03-10T17:03:57.232Z,97950.16
2019-03-10T17:06:08.123Z,97959.22
2019-03-10T17:08:18.961Z,97956.27
2019-03-10T17:10:29.773Z,97973.31
2019-03-10T17:12:40.871Z,97970.80
2019-03-10T17:14:51.682Z,97980.12
2019-03-10T17:17:02.489Z,97985.66
2019-03-10T17:19:13.333Z,97987.31
2019-03-10T17:24:03.031Z,97996.34
2019-03-10T17:26:13.834Z,98008.38
2019-03-10T17:28:24.874Z,98002.49
2019-03-10T17:30:35.659Z,98008.23
2019-03-10T17:33:28.121Z,98016.71
2019-03-10T17:35:38.964Z,98029.41
2019-03-10T17:37:49.805Z,98031.59
2019-03-10T17:40:00.606Z,98049.18
2019-03-10T17:42:11.429Z,98037.63
2019-03-10T17:44:22.355Z,98051.46
2019-03-10T17:46:33.171Z,98051.34
2019-03-10T17:48:44.023Z,98060.48
2019-03-10T17:50:54.836Z,98055.13
2019-03-10T17:53:07.496Z,98058.55
2019-03-10T17:56:00.037Z,98056.77
2019-03-10T17:58:10.857Z,98070.70
2019-03-10T18:00:41.628Z,98066.92
2019-03-10T18:02:52.450Z,98061.64
2019-03-10T18:05:44.997Z,98080.02
2019-03-10T18:07:55.816Z,98083.48
2019-03-10T18:10:27.489Z,98086.46
2019-03-10T18:12:38.284Z,98069.29
2019-03-10T18:14:49.145Z,98075.06
2019-03-10T18:16:59.948Z,98076.14
2019-03-10T18:19:10.773Z,98079.49
2019-03-10T18:21:21.635Z,98072.45
2019-03-10T18:23:32.485Z,98084.39
2019-03-10T18:25:43.315Z,98144.14
2019-03-10T18:27:54.145Z,98142.87
2019-03-10T18:30:46.685Z,98142.34
2019-03-10T18:32:57.511Z,98133.43
2019-03-10T18:35:08.471Z,98144.69
2019-03-10T18:37:19.287Z,98155.59
2019-03-10T18:39:30.088Z,98150.03
2019-03-10T18:41:40.906Z,98174.47
2019-03-10T18:43:51.717Z,98171.66
2019-03-10T18:46:02.722Z,98169.72
2019-03-10T18:48:13.516Z,98263.23
2019-03-10T18:51:06.049Z,98275.34
2019-03-10T18:53:16.876Z,98277.52
2019-03-10T18:55:27.814Z,98277.24
2019-03-10T18:57:38.625Z,98255.75
2019-03-10T19:00:09.325Z,98279.78
2019-03-10T19:02:20.162Z,98273.99
2019-03-10T19:04:31.028Z,98286.21
2019-03-10T19:06:42.159Z,98289.52
2019-03-10T19:08:52.972Z,98300.24
2019-03-10T19:11:03.897Z,98305.42
2019-03-10T19:13:14.753Z,98292.25
2019-03-10T19:16:07.237Z,98320.68
2019-03-10T19:18:18.138Z,98309.03
2019-03-10T19:20:28.959Z,98313.73
2019-03-10T19:22:39.804Z,98330.80
2019-03-10T19:24:50.631Z,98330.73
2019-03-10T19:27:01.466Z,98338.19
2019-03-10T19:29:12.351Z,98336.38
2019-03-10T19:31:23.177Z,98336.46
2019-03-10T19:33:34.041Z,98343.23
2019-03-10T19:35:44.941Z,98338.66
2019-03-10T19:37:55.814Z,98347.55
2019-03-10T19:40:48.280Z,98353.13
2019-03-10T19:42:59.133Z,98348.16
2019-03-10T19:45:51.613Z,98366.27
2019-03-10T19:48:02.581Z,98372.45
2019-03-10T19:50:55.062Z,98380.05
2019-03-10T19:53:05.903Z,98369.23
2019-03-10T19:55:16.718Z,98357.45
2019-03-10T19:57:27.527Z,98367.63
2019-03-10T19:59:38.376Z,98371.42
2019-03-10T20:01:49.173Z,98356.76
2019-03-10T20:04:00.040Z,98382.31
2019-03-10T20:06:10.886Z,98377.28
2019-03-10T20:08:21.721Z,98370.30
2019-03-10T20:10:32.532Z,98395.48
2019-03-10T20:12:43.386Z,98397.52
2019-03-10T20:14:54.220Z,98395.84
2019-03-10T20:17:05.022Z,98409.85
2019-03-10T20:19:15.889Z,98405.66
2019-03-10T20:21:26.725Z,98419.78
2019-03-10T20:23:37.581Z,98415.66
2019-03-10T20:25:48.419Z,98419.73
2019-03-10T20:27:59.239Z,98433.88
2019-03-10T20:30:29.933Z,98427.59
2019-03-10T20:32:40.741Z,98425.32
2019-03-10T20:34:51.569Z,98432.31
2019-03-10T20:37:02.389Z,98444.96
2019-03-10T20:39:13.257Z,98449.67
2019-03-10T20:41:24.057Z,98455.50
2019-03-10T20:43:34.898Z,98464.32
2019-03-10T20:45:45.733Z,98466.75
2019-03-10T20:47:57.007Z,98474.97
2019-03-10T20:50:50.988Z,98475.56
2019-03-10T20:53:01.815Z,98488.04
2019-03-10T20:55:54.309Z,98497.70
2019-03-10T20:58:05.104Z,98496.38
2019-03-10T21:00:35.801Z,98482.34
2019-03-10T21:02:46.613Z,98495.86
2019-03-10T21:04:57.484Z,98501.82
2019-03-10T21:07:10.243Z,98511.21
2019-03-10T21:09:21.131Z,98511.80
2019-03-10T21:11:31.978Z,98517.94
2019-03-10T21:13:42.885Z,98520.19
2019-03-10T21:15:53.709Z,98532.36
2019-03-10T21:18:04.565Z,98525.95
2019-03-10T21:20:57.025Z,98529.40
2019-03-10T21:23:08.226Z,98537.58
2019-03-10T21:26:00.696Z,98533.41
2019-03-10T21:28:11.513Z,98549.67
2019-03-10T21:31:04.007Z,98541.91
2019-03-10T21:33:14.819Z,98547.08
2019-03-10T21:35:25.639Z,98556.12
2019-03-10T21:37:36.469Z,98564.22
2019-03-10T21:39:49.286Z,98566.34
2019-03-10T21:42:00.027Z,98575.72
2019-03-10T21:44:10.844Z,98584.45
2019-03-10T21:46:21.653Z,98588.33
2019-03-10T21:48:32.459Z,98584.95
2019-03-10T21:50:43.266Z,98591.28
2019-03-10T21:52:54.099Z,98594.53
2019-03-10T21:55:46.528Z,98597.25
2019-03-10T21:57:57.381Z,98611.20
2019-03-10T22:00:28.048Z,98606.03
2019-03-10T22:02:38.900Z,98606.36
2019-03-10T22:04:49.752Z,98609.65
2019-03-10T22:07:00.594Z,98608.14
2019-03-10T22:09:11.473Z,98609.13
2019-03-10T22:11:22.298Z,98608.22
2019-03-10T22:13:33.236Z,98618.34
2019-03-10T22:15:44.031Z,98619.17
2019-03-10T22:17:54.893Z,98617.58
2019-03-10T22:20:25.561Z,98638.95
2019-03-10T22:22:48.027Z,98639.13
2019-03-10T22:24:49.110Z,98630.95
2019-03-10T22:26:59.942Z,98643.73
2019-03-10T22:29:10.845Z,98633.82
2019-03-10T22:31:21.619Z,98644.61
2019-03-10T22:33:32.457Z,98644.11
2019-03-10T22:35:43.252Z,98650.05
2019-03-10T22:37:54.102Z,98650.05
2019-03-10T22:40:46.560Z,98647.39
2019-03-10T22:42:57.391Z,98643.73
2019-03-10T22:45:49.877Z,98652.81
2019-03-10T22:48:00.702Z,98641.38
2019-03-10T22:50:53.167Z,98660.64
2019-03-10T22:53:04.006Z,98655.33
2019-03-10T22:55:14.920Z,98660.98
2019-03-10T22:57:25.740Z,98659.36
2019-03-10T22:59:36.672Z,98658.41
2019-03-10T23:01:47.512Z,98666.73
2019-03-10T23:03:58.371Z,98667.56
2019-03-10T23:06:09.280Z,98670.94
2019-03-10T23:08:20.098Z,98672.23
2019-03-10T23:10:30.950Z,98676.48
2019-03-10T23:12:41.759Z,98684.01
2019-03-10T23:14:52.598Z,98679.34
2019-03-10T23:17:03.406Z,98675.16
2019-03-10T23:19:14.243Z,98682.56
2019-03-10T23:21:25.050Z,98684.96
2019-03-10T23:23:35.907Z,98690.13
2019-03-10T23:25:46.693Z,98692.25
2019-03-10T23:27:57.606Z,98691.61
2019-03-10T23:30:28.285Z,98706.01
2019-03-10T23:32:39.092Z,98701.64
2019-03-10T23:34:49.890Z,98708.17
2019-03-10T23:37:00.705Z,98705.73
2019-03-10T23:39:11.510Z,98707.03
2019-03-10T23:41:22.437Z,98710.07
2019-03-10T23:43:33.237Z,98714.05
2019-03-10T23:45:44.054Z,98715.27
2019-03-10T23:47:54.862Z,98725.70
2019-03-10T23:50:47.332Z,98728.05
2019-03-10T23:52:58.130Z,98728.69
2019-03-10T23:55:50.594Z,98724.81
2019-03-10T23:58:01.397Z,98730.02
